sensor_id;sensor_type;location;lat;lon;timestamp;P1;durP1;ratioP1;P2;durP2;ratioP2
16892;SDS011;8563;52.242;9.098;2023-02-18T00:00:38;6.23;;;1.50;;
16892;SDS011;8563;52.242;9.098;2023-02-18T00:03:11;5.77;;;1.20;;
16892;SDS011;8563;52.242;9.098;2023-02-18T00:05:46;4.77;;;1.30;;
16892;SDS011;8563;52.242;9.098;2023-02-18T00:08:22;3.97;;;1.30;;
16892;SDS011;8563;52.242;9.098;2023-02-18T00:10:55;4.57;;;0.93;;
16892;SDS011;8563;52.242;9.098;2023-02-18T00:13:29;6.27;;;1.40;;
16892;SDS011;8563;52.242;9.098;2023-02-18T00:16:03;5.30;;;1.40;;
16892;SDS011;8563;52.242;9.098;2023-02-18T00:18:37;6.73;;;1.70;;
16892;SDS011;8563;52.242;9.098;2023-02-18T00:21:11;3.23;;;1.20;;
16892;SDS011;8563;52.242;9.098;2023-02-18T00:23:49;4.63;;;1.50;;
16892;SDS011;8563;52.242;9.098;2023-02-18T00:26:23;5.33;;;1.17;;
16892;SDS011;8563;52.242;9.098;2023-02-18T00:28:56;4.57;;;1.13;;
16892;SDS011;8563;52.242;9.098;2023-02-18T00:31:31;6.03;;;1.20;;
16892;SDS011;8563;52.242;9.098;2023-02-18T00:34:06;4.70;;;1.30;;
16892;SDS011;8563;52.242;9.098;2023-02-18T00:36:48;4.73;;;1.20;;
16892;SDS011;8563;52.242;9.098;2023-02-18T00:39:23;4.20;;;1.13;;
16892;SDS011;8563;52.242;9.098;2023-02-18T00:41:56;4.63;;;1.50;;
16892;SDS011;8563;52.242;9.098;2023-02-18T00:44:29;5.03;;;1.50;;
16892;SDS011;8563;52.242;9.098;2023-02-18T00:47:04;7.50;;;1.40;;
16892;SDS011;8563;52.242;9.098;2023-02-18T00:49:37;4.67;;;1.43;;
16892;SDS011;8563;52.242;9.098;2023-02-18T00:52:11;6.37;;;1.37;;
16892;SDS011;8563;52.242;9.098;2023-02-18T00:54:46;6.80;;;1.60;;
16892;SDS011;8563;52.242;9.098;2023-02-18T00:57:20;5.90;;;1.87;;
16892;SDS011;8563;52.242;9.098;2023-02-18T00:59:53;5.70;;;1.40;;
16892;SDS011;8563;52.242;9.098;2023-02-18T01:02:26;10.30;;;1.80;;
16892;SDS011;8563;52.242;9.098;2023-02-18T01:05:00;9.07;;;1.83;;
16892;SDS011;8563;52.242;9.098;2023-02-18T01:07:34;5.07;;;1.30;;
16892;SDS011;8563;52.242;9.098;2023-02-18T01:10:13;6.77;;;1.63;;
16892;SDS011;8563;52.242;9.098;2023-02-18T01:12:48;8.97;;;2.00;;
16892;SDS011;8563;52.242;9.098;2023-02-18T01:15:21;5.53;;;1.77;;
16892;SDS011;8563;52.242;9.098;2023-02-18T01:17:54;6.93;;;1.70;;
16892;SDS011;8563;52.242;9.098;2023-02-18T01:20:30;8.43;;;2.20;;
16892;SDS011;8563;52.242;9.098;2023-02-18T01:23:05;8.47;;;2.30;;
16892;SDS011;8563;52.242;9.098;2023-02-18T01:25:42;10.13;;;2.20;;
16892;SDS011;8563;52.242;9.098;2023-02-18T01:28:16;5.13;;;2.20;;
16892;SDS011;8563;52.242;9.098;2023-02-18T01:30:50;8.63;;;2.93;;
16892;SDS011;8563;52.242;9.098;2023-02-18T01:33:24;11.93;;;3.33;;
16892;SDS011;8563;52.242;9.098;2023-02-18T01:35:57;10.80;;;3.50;;
16892;SDS011;8563;52.242;9.098;2023-02-18T01:38:31;10.63;;;3.60;;
16892;SDS011;8563;52.242;9.098;2023-02-18T01:41:09;7.23;;;3.53;;
16892;SDS011;8563;52.242;9.098;2023-02-18T01:43:44;9.20;;;4.00;;
16892;SDS011;8563;52.242;9.098;2023-02-18T01:46:20;11.87;;;4.57;;
16892;SDS011;8563;52.242;9.098;2023-02-18T01:48:54;11.37;;;5.17;;
16892;SDS011;8563;52.242;9.098;2023-02-18T01:51:30;11.67;;;6.10;;
16892;SDS011;8563;52.242;9.098;2023-02-18T01:54:04;15.87;;;6.60;;
16892;SDS011;8563;52.242;9.098;2023-02-18T01:56:43;11.23;;;5.80;;
16892;SDS011;8563;52.242;9.098;2023-02-18T01:59:19;12.40;;;6.07;;
16892;SDS011;8563;52.242;9.098;2023-02-18T02:01:53;12.93;;;6.83;;
16892;SDS011;8563;52.242;9.098;2023-02-18T02:04:27;12.40;;;6.60;;
16892;SDS011;8563;52.242;9.098;2023-02-18T02:07:02;10.20;;;6.20;;
16892;SDS011;8563;52.242;9.098;2023-02-18T02:09:36;16.17;;;7.93;;
16892;SDS011;8563;52.242;9.098;2023-02-18T02:12:20;15.00;;;9.27;;
16892;SDS011;8563;52.242;9.098;2023-02-18T02:15:05;13.20;;;9.20;;
16892;SDS011;8563;52.242;9.098;2023-02-18T02:17:44;16.27;;;10.50;;
16892;SDS011;8563;52.242;9.098;2023-02-18T02:26:32;22.00;;;10.90;;
16892;SDS011;8563;52.242;9.098;2023-02-18T02:29:28;17.03;;;11.83;;
16892;SDS011;8563;52.242;9.098;2023-02-18T02:32:12;14.23;;;11.20;;
16892;SDS011;8563;52.242;9.098;2023-02-18T02:34:55;19.13;;;12.90;;
16892;SDS011;8563;52.242;9.098;2023-02-18T02:37:33;19.93;;;13.77;;
16892;SDS011;8563;52.242;9.098;2023-02-18T02:40:12;20.50;;;13.43;;
16892;SDS011;8563;52.242;9.098;2023-02-18T02:42:50;18.40;;;13.77;;
16892;SDS011;8563;52.242;9.098;2023-02-18T02:45:31;21.87;;;14.37;;
16892;SDS011;8563;52.242;9.098;2023-02-18T02:48:09;21.67;;;14.40;;
16892;SDS011;8563;52.242;9.098;2023-02-18T02:50:51;21.90;;;14.27;;
16892;SDS011;8563;52.242;9.098;2023-02-18T02:53:26;19.93;;;15.40;;
16892;SDS011;8563;52.242;9.098;2023-02-18T02:56:00;20.20;;;15.77;;
16892;SDS011;8563;52.242;9.098;2023-02-18T02:58:34;18.20;;;14.30;;
16892;SDS011;8563;52.242;9.098;2023-02-18T03:01:16;21.63;;;15.43;;
16892;SDS011;8563;52.242;9.098;2023-02-18T03:04:04;18.63;;;14.23;;
16892;SDS011;8563;52.242;9.098;2023-02-18T03:06:55;22.80;;;15.97;;
16892;SDS011;8563;52.242;9.098;2023-02-18T03:09:34;22.93;;;14.83;;
16892;SDS011;8563;52.242;9.098;2023-02-18T03:12:18;22.70;;;15.90;;
16892;SDS011;8563;52.242;9.098;2023-02-18T03:15:03;20.40;;;16.57;;
16892;SDS011;8563;52.242;9.098;2023-02-18T03:17:37;21.50;;;17.07;;
16892;SDS011;8563;52.242;9.098;2023-02-18T03:20:16;22.60;;;16.30;;
16892;SDS011;8563;52.242;9.098;2023-02-18T03:22:58;21.57;;;16.40;;
16892;SDS011;8563;52.242;9.098;2023-02-18T03:25:35;19.17;;;15.03;;
16892;SDS011;8563;52.242;9.098;2023-02-18T03:28:10;21.50;;;16.57;;
16892;SDS011;8563;52.242;9.098;2023-02-18T03:30:45;22.50;;;16.70;;
16892;SDS011;8563;52.242;9.098;2023-02-18T03:33:26;20.83;;;16.30;;
16892;SDS011;8563;52.242;9.098;2023-02-18T03:36:00;23.53;;;17.07;;
16892;SDS011;8563;52.242;9.098;2023-02-18T03:38:37;30.97;;;18.87;;
16892;SDS011;8563;52.242;9.098;2023-02-18T03:41:13;23.30;;;19.37;;
16892;SDS011;8563;52.242;9.098;2023-02-18T03:43:49;23.47;;;19.20;;
16892;SDS011;8563;52.242;9.098;2023-02-18T03:46:24;23.27;;;18.30;;
16892;SDS011;8563;52.242;9.098;2023-02-18T03:48:58;26.67;;;22.27;;
16892;SDS011;8563;52.242;9.098;2023-02-18T03:51:34;24.30;;;19.83;;
16892;SDS011;8563;52.242;9.098;2023-02-18T03:54:08;27.33;;;21.50;;
16892;SDS011;8563;52.242;9.098;2023-02-18T03:56:44;24.97;;;19.33;;
16892;SDS011;8563;52.242;9.098;2023-02-18T03:59:20;28.27;;;20.53;;
16892;SDS011;8563;52.242;9.098;2023-02-18T04:01:55;29.73;;;21.00;;
16892;SDS011;8563;52.242;9.098;2023-02-18T04:04:28;28.27;;;21.37;;
16892;SDS011;8563;52.242;9.098;2023-02-18T04:07:02;25.30;;;20.20;;
16892;SDS011;8563;52.242;9.098;2023-02-18T04:09:37;25.77;;;20.90;;
16892;SDS011;8563;52.242;9.098;2023-02-18T04:12:10;31.20;;;22.07;;
16892;SDS011;8563;52.242;9.098;2023-02-18T04:14:48;28.83;;;22.63;;
16892;SDS011;8563;52.242;9.098;2023-02-18T04:17:22;28.00;;;22.43;;
16892;SDS011;8563;52.242;9.098;2023-02-18T04:19:57;24.70;;;21.43;;
16892;SDS011;8563;52.242;9.098;2023-02-18T04:22:30;30.47;;;22.93;;
16892;SDS011;8563;52.242;9.098;2023-02-18T04:25:06;30.50;;;22.90;;
16892;SDS011;8563;52.242;9.098;2023-02-18T04:27:39;28.07;;;21.43;;
16892;SDS011;8563;52.242;9.098;2023-02-18T04:30:13;29.13;;;22.37;;
16892;SDS011;8563;52.242;9.098;2023-02-18T04:32:46;31.23;;;24.20;;
16892;SDS011;8563;52.242;9.098;2023-02-18T04:35:18;29.67;;;22.50;;
16892;SDS011;8563;52.242;9.098;2023-02-18T04:37:52;32.43;;;23.07;;
16892;SDS011;8563;52.242;9.098;2023-02-18T04:40:32;30.53;;;23.53;;
16892;SDS011;8563;52.242;9.098;2023-02-18T04:43:05;30.07;;;23.10;;
16892;SDS011;8563;52.242;9.098;2023-02-18T04:45:39;29.27;;;23.00;;
16892;SDS011;8563;52.242;9.098;2023-02-18T04:48:13;31.90;;;23.53;;
16892;SDS011;8563;52.242;9.098;2023-02-18T04:50:48;22.77;;;18.73;;
16892;SDS011;8563;52.242;9.098;2023-02-18T04:53:21;21.43;;;17.10;;
16892;SDS011;8563;52.242;9.098;2023-02-18T04:55:55;19.17;;;15.73;;
16892;SDS011;8563;52.242;9.098;2023-02-18T04:58:28;19.60;;;16.17;;
16892;SDS011;8563;52.242;9.098;2023-02-18T05:01:02;19.50;;;15.17;;
16892;SDS011;8563;52.242;9.098;2023-02-18T05:03:36;21.60;;;16.57;;
16892;SDS011;8563;52.242;9.098;2023-02-18T05:06:09;18.33;;;15.10;;
16892;SDS011;8563;52.242;9.098;2023-02-18T05:08:47;21.03;;;16.73;;
16892;SDS011;8563;52.242;9.098;2023-02-18T05:11:23;21.50;;;16.60;;
16892;SDS011;8563;52.242;9.098;2023-02-18T05:13:56;22.50;;;16.50;;
16892;SDS011;8563;52.242;9.098;2023-02-18T05:16:29;20.03;;;16.03;;
16892;SDS011;8563;52.242;9.098;2023-02-18T05:19:03;18.07;;;14.70;;
16892;SDS011;8563;52.242;9.098;2023-02-18T05:21:36;21.57;;;17.67;;
16892;SDS011;8563;52.242;9.098;2023-02-18T05:24:10;19.20;;;16.17;;
16892;SDS011;8563;52.242;9.098;2023-02-18T05:26:46;21.90;;;16.97;;
16892;SDS011;8563;52.242;9.098;2023-02-18T05:29:20;23.53;;;17.53;;
16892;SDS011;8563;52.242;9.098;2023-02-18T05:31:53;22.07;;;17.40;;
16892;SDS011;8563;52.242;9.098;2023-02-18T05:34:26;21.90;;;17.53;;
16892;SDS011;8563;52.242;9.098;2023-02-18T05:36:59;22.37;;;17.27;;
16892;SDS011;8563;52.242;9.098;2023-02-18T05:39:33;19.60;;;16.27;;
16892;SDS011;8563;52.242;9.098;2023-02-18T05:42:07;26.23;;;18.03;;
16892;SDS011;8563;52.242;9.098;2023-02-18T05:44:41;19.60;;;16.27;;
16892;SDS011;8563;52.242;9.098;2023-02-18T05:47:14;20.70;;;17.40;;
16892;SDS011;8563;52.242;9.098;2023-02-18T05:49:49;18.23;;;15.97;;
16892;SDS011;8563;52.242;9.098;2023-02-18T05:52:22;18.53;;;15.00;;
16892;SDS011;8563;52.242;9.098;2023-02-18T05:54:55;19.17;;;15.00;;
16892;SDS011;8563;52.242;9.098;2023-02-18T05:57:31;19.20;;;14.97;;
16892;SDS011;8563;52.242;9.098;2023-02-18T06:00:04;17.33;;;14.00;;
16892;SDS011;8563;52.242;9.098;2023-02-18T06:02:39;17.70;;;14.20;;
16892;SDS011;8563;52.242;9.098;2023-02-18T06:05:12;18.33;;;14.37;;
16892;SDS011;8563;52.242;9.098;2023-02-18T06:07:46;16.03;;;12.77;;
16892;SDS011;8563;52.242;9.098;2023-02-18T06:10:19;15.87;;;13.10;;
16892;SDS011;8563;52.242;9.098;2023-02-18T06:12:55;15.50;;;12.53;;
16892;SDS011;8563;52.242;9.098;2023-02-18T06:15:29;14.87;;;11.63;;
16892;SDS011;8563;52.242;9.098;2023-02-18T06:18:03;16.87;;;12.07;;
16892;SDS011;8563;52.242;9.098;2023-02-18T06:20:36;15.83;;;11.90;;
16892;SDS011;8563;52.242;9.098;2023-02-18T06:23:12;14.30;;;11.53;;
16892;SDS011;8563;52.242;9.098;2023-02-18T06:25:47;15.73;;;12.23;;
16892;SDS011;8563;52.242;9.098;2023-02-18T06:28:22;13.10;;;11.20;;
16892;SDS011;8563;52.242;9.098;2023-02-18T06:31:00;14.80;;;12.40;;
16892;SDS011;8563;52.242;9.098;2023-02-18T06:33:34;16.10;;;12.53;;
16892;SDS011;8563;52.242;9.098;2023-02-18T06:36:08;16.80;;;12.13;;
16892;SDS011;8563;52.242;9.098;2023-02-18T06:38:43;15.37;;;12.13;;
16892;SDS011;8563;52.242;9.098;2023-02-18T06:41:16;14.80;;;12.47;;
16892;SDS011;8563;52.242;9.098;2023-02-18T06:43:51;18.30;;;13.07;;
16892;SDS011;8563;52.242;9.098;2023-02-18T06:46:25;14.30;;;12.50;;
16892;SDS011;8563;52.242;9.098;2023-02-18T06:49:04;17.27;;;12.33;;
16892;SDS011;8563;52.242;9.098;2023-02-18T06:51:38;18.50;;;14.03;;
16892;SDS011;8563;52.242;9.098;2023-02-18T06:54:11;15.80;;;12.90;;
16892;SDS011;8563;52.242;9.098;2023-02-18T06:56:45;16.47;;;13.07;;
16892;SDS011;8563;52.242;9.098;2023-02-18T06:59:20;16.53;;;13.50;;
16892;SDS011;8563;52.242;9.098;2023-02-18T07:01:53;16.83;;;13.60;;
16892;SDS011;8563;52.242;9.098;2023-02-18T07:04:26;15.77;;;13.13;;
16892;SDS011;8563;52.242;9.098;2023-02-18T07:06:59;15.87;;;13.13;;
16892;SDS011;8563;52.242;9.098;2023-02-18T07:09:32;17.80;;;13.70;;
16892;SDS011;8563;52.242;9.098;2023-02-18T07:12:07;16.57;;;13.37;;
16892;SDS011;8563;52.242;9.098;2023-02-18T07:14:45;16.23;;;12.87;;
16892;SDS011;8563;52.242;9.098;2023-02-18T07:17:17;13.63;;;10.93;;
16892;SDS011;8563;52.242;9.098;2023-02-18T07:19:50;13.80;;;10.90;;
16892;SDS011;8563;52.242;9.098;2023-02-18T07:22:26;12.30;;;9.87;;
16892;SDS011;8563;52.242;9.098;2023-02-18T07:25:00;10.67;;;9.00;;
16892;SDS011;8563;52.242;9.098;2023-02-18T07:27:33;9.60;;;8.23;;
16892;SDS011;8563;52.242;9.098;2023-02-18T07:30:09;11.33;;;8.70;;
16892;SDS011;8563;52.242;9.098;2023-02-18T07:32:42;9.70;;;7.80;;
16892;SDS011;8563;52.242;9.098;2023-02-18T07:35:15;9.43;;;7.90;;
16892;SDS011;8563;52.242;9.098;2023-02-18T07:37:49;7.83;;;6.73;;
16892;SDS011;8563;52.242;9.098;2023-02-18T07:40:22;7.73;;;6.60;;
16892;SDS011;8563;52.242;9.098;2023-02-18T07:42:56;7.73;;;6.53;;
16892;SDS011;8563;52.242;9.098;2023-02-18T07:45:31;6.57;;;5.87;;
16892;SDS011;8563;52.242;9.098;2023-02-18T07:48:09;7.27;;;5.87;;
16892;SDS011;8563;52.242;9.098;2023-02-18T07:50:48;6.30;;;5.00;;
16892;SDS011;8563;52.242;9.098;2023-02-18T07:53:21;7.50;;;5.50;;
16892;SDS011;8563;52.242;9.098;2023-02-18T07:55:56;10.00;;;6.03;;
16892;SDS011;8563;52.242;9.098;2023-02-18T07:58:31;6.57;;;5.10;;
16892;SDS011;8563;52.242;9.098;2023-02-18T08:01:09;6.17;;;4.60;;
16892;SDS011;8563;52.242;9.098;2023-02-18T08:03:44;6.57;;;4.77;;
16892;SDS011;8563;52.242;9.098;2023-02-18T08:06:20;5.23;;;4.63;;
16892;SDS011;8563;52.242;9.098;2023-02-18T08:08:54;4.77;;;4.27;;
16892;SDS011;8563;52.242;9.098;2023-02-18T08:11:31;5.00;;;4.50;;
16892;SDS011;8563;52.242;9.098;2023-02-18T08:14:06;4.53;;;4.13;;
16892;SDS011;8563;52.242;9.098;2023-02-18T08:16:41;4.70;;;3.73;;
16892;SDS011;8563;52.242;9.098;2023-02-18T08:19:17;4.30;;;3.90;;
16892;SDS011;8563;52.242;9.098;2023-02-18T08:21:50;4.57;;;4.00;;
16892;SDS011;8563;52.242;9.098;2023-02-18T08:24:24;4.77;;;3.47;;
16892;SDS011;8563;52.242;9.098;2023-02-18T08:26:58;3.77;;;3.30;;
16892;SDS011;8563;52.242;9.098;2023-02-18T08:29:31;3.60;;;3.30;;
16892;SDS011;8563;52.242;9.098;2023-02-18T08:32:06;3.97;;;3.37;;
16892;SDS011;8563;52.242;9.098;2023-02-18T08:34:39;3.33;;;3.07;;
16892;SDS011;8563;52.242;9.098;2023-02-18T08:37:15;3.43;;;3.13;;
16892;SDS011;8563;52.242;9.098;2023-02-18T08:39:50;3.00;;;2.80;;
16892;SDS011;8563;52.242;9.098;2023-02-18T08:42:23;3.20;;;2.90;;
16892;SDS011;8563;52.242;9.098;2023-02-18T08:44:58;3.60;;;2.67;;
16892;SDS011;8563;52.242;9.098;2023-02-18T08:47:35;2.60;;;2.40;;
16892;SDS011;8563;52.242;9.098;2023-02-18T08:50:08;2.60;;;2.40;;
16892;SDS011;8563;52.242;9.098;2023-02-18T08:52:41;2.50;;;2.30;;
16892;SDS011;8563;52.242;9.098;2023-02-18T08:55:14;2.63;;;2.43;;
16892;SDS011;8563;52.242;9.098;2023-02-18T08:57:50;3.00;;;2.00;;
16892;SDS011;8563;52.242;9.098;2023-02-18T09:00:23;2.87;;;1.90;;
16892;SDS011;8563;52.242;9.098;2023-02-18T09:02:59;2.47;;;2.13;;
16892;SDS011;8563;52.242;9.098;2023-02-18T09:05:33;2.43;;;2.03;;
16892;SDS011;8563;52.242;9.098;2023-02-18T09:08:06;2.00;;;1.80;;
16892;SDS011;8563;52.242;9.098;2023-02-18T09:10:39;1.60;;;1.50;;
16892;SDS011;8563;52.242;9.098;2023-02-18T09:13:12;2.77;;;2.23;;
16892;SDS011;8563;52.242;9.098;2023-02-18T09:15:54;2.23;;;2.03;;
16892;SDS011;8563;52.242;9.098;2023-02-18T09:18:29;2.00;;;1.80;;
16892;SDS011;8563;52.242;9.098;2023-02-18T09:21:03;1.47;;;1.37;;
16892;SDS011;8563;52.242;9.098;2023-02-18T09:23:36;2.77;;;1.60;;
16892;SDS011;8563;52.242;9.098;2023-02-18T09:26:11;2.43;;;1.30;;
16892;SDS011;8563;52.242;9.098;2023-02-18T09:28:45;1.67;;;1.37;;
16892;SDS011;8563;52.242;9.098;2023-02-18T09:31:20;1.60;;;1.40;;
16892;SDS011;8563;52.242;9.098;2023-02-18T09:33:55;2.00;;;1.37;;
16892;SDS011;8563;52.242;9.098;2023-02-18T09:36:28;2.23;;;1.20;;
16892;SDS011;8563;52.242;9.098;2023-02-18T09:39:04;1.73;;;1.30;;
16892;SDS011;8563;52.242;9.098;2023-02-18T09:41:38;1.40;;;1.30;;
16892;SDS011;8563;52.242;9.098;2023-02-18T09:44:15;1.37;;;1.10;;
16892;SDS011;8563;52.242;9.098;2023-02-18T09:46:53;1.10;;;1.00;;
16892;SDS011;8563;52.242;9.098;2023-02-18T09:49:30;1.40;;;1.00;;
16892;SDS011;8563;52.242;9.098;2023-02-18T09:52:05;1.67;;;1.20;;
16892;SDS011;8563;52.242;9.098;2023-02-18T09:54:39;1.30;;;1.00;;
16892;SDS011;8563;52.242;9.098;2023-02-18T09:57:14;1.03;;;1.00;;
16892;SDS011;8563;52.242;9.098;2023-02-18T09:59:51;1.10;;;1.00;;
16892;SDS011;8563;52.242;9.098;2023-02-18T10:02:27;1.40;;;1.00;;
16892;SDS011;8563;52.242;9.098;2023-02-18T10:05:02;1.20;;;1.10;;
16892;SDS011;8563;52.242;9.098;2023-02-18T10:07:36;1.37;;;1.00;;
16892;SDS011;8563;52.242;9.098;2023-02-18T10:10:15;2.10;;;1.30;;
16892;SDS011;8563;52.242;9.098;2023-02-18T10:12:48;2.43;;;1.00;;
16892;SDS011;8563;52.242;9.098;2023-02-18T10:15:23;1.00;;;0.90;;
16892;SDS011;8563;52.242;9.098;2023-02-18T10:17:59;1.30;;;1.20;;
16892;SDS011;8563;52.242;9.098;2023-02-18T10:20:33;0.90;;;0.90;;
16892;SDS011;8563;52.242;9.098;2023-02-18T10:23:07;1.20;;;0.90;;
16892;SDS011;8563;52.242;9.098;2023-02-18T10:25:42;1.30;;;1.20;;
16892;SDS011;8563;52.242;9.098;2023-02-18T10:28:17;1.50;;;1.20;;
16892;SDS011;8563;52.242;9.098;2023-02-18T10:30:53;1.30;;;1.20;;
16892;SDS011;8563;52.242;9.098;2023-02-18T10:33:31;0.90;;;0.90;;
16892;SDS011;8563;52.242;9.098;2023-02-18T10:36:10;1.80;;;1.00;;
16892;SDS011;8563;52.242;9.098;2023-02-18T10:38:52;1.50;;;1.20;;
16892;SDS011;8563;52.242;9.098;2023-02-18T10:41:27;1.60;;;1.17;;
16892;SDS011;8563;52.242;9.098;2023-02-18T10:44:03;1.37;;;1.27;;
16892;SDS011;8563;52.242;9.098;2023-02-18T10:46:49;1.40;;;1.30;;
16892;SDS011;8563;52.242;9.098;2023-02-18T10:49:30;2.20;;;1.13;;
16892;SDS011;8563;52.242;9.098;2023-02-18T10:52:12;1.20;;;1.00;;
16892;SDS011;8563;52.242;9.098;2023-02-18T10:54:50;1.83;;;1.10;;
16892;SDS011;8563;52.242;9.098;2023-02-18T10:57:24;1.20;;;1.10;;
16892;SDS011;8563;52.242;9.098;2023-02-18T10:59:58;2.03;;;1.30;;
16892;SDS011;8563;52.242;9.098;2023-02-18T11:02:31;1.37;;;1.27;;
16892;SDS011;8563;52.242;9.098;2023-02-18T11:05:11;1.40;;;1.30;;
16892;SDS011;8563;52.242;9.098;2023-02-18T11:07:50;1.20;;;1.10;;
16892;SDS011;8563;52.242;9.098;2023-02-18T11:10:25;1.40;;;1.20;;
16892;SDS011;8563;52.242;9.098;2023-02-18T11:12:59;1.70;;;1.60;;
16892;SDS011;8563;52.242;9.098;2023-02-18T11:15:33;1.37;;;1.27;;
16892;SDS011;8563;52.242;9.098;2023-02-18T11:18:13;1.90;;;1.70;;
16892;SDS011;8563;52.242;9.098;2023-02-18T11:20:48;1.70;;;1.50;;
16892;SDS011;8563;52.242;9.098;2023-02-18T11:23:29;2.37;;;1.57;;
16892;SDS011;8563;52.242;9.098;2023-02-18T11:26:02;2.40;;;1.63;;
16892;SDS011;8563;52.242;9.098;2023-02-18T11:28:41;2.00;;;1.80;;
16892;SDS011;8563;52.242;9.098;2023-02-18T11:31:16;1.80;;;1.70;;
16892;SDS011;8563;52.242;9.098;2023-02-18T11:33:53;2.60;;;1.60;;
16892;SDS011;8563;52.242;9.098;2023-02-18T11:36:28;2.20;;;1.57;;
16892;SDS011;8563;52.242;9.098;2023-02-18T11:39:04;2.57;;;1.90;;
16892;SDS011;8563;52.242;9.098;2023-02-18T11:41:41;3.93;;;2.00;;
16892;SDS011;8563;52.242;9.098;2023-02-18T11:44:18;3.93;;;1.70;;
16892;SDS011;8563;52.242;9.098;2023-02-18T11:46:57;2.37;;;1.80;;
16892;SDS011;8563;52.242;9.098;2023-02-18T11:49:32;1.73;;;1.63;;
16892;SDS011;8563;52.242;9.098;2023-02-18T11:52:13;1.57;;;1.40;;
16892;SDS011;8563;52.242;9.098;2023-02-18T11:55:00;1.50;;;1.20;;
16892;SDS011;8563;52.242;9.098;2023-02-18T11:57:34;2.13;;;1.03;;
16892;SDS011;8563;52.242;9.098;2023-02-18T12:00:14;1.03;;;0.93;;
16892;SDS011;8563;52.242;9.098;2023-02-18T12:02:48;1.93;;;1.20;;
16892;SDS011;8563;52.242;9.098;2023-02-18T12:05:21;1.00;;;1.00;;
16892;SDS011;8563;52.242;9.098;2023-02-18T12:07:55;1.60;;;1.20;;
16892;SDS011;8563;52.242;9.098;2023-02-18T12:10:33;1.90;;;1.27;;
16892;SDS011;8563;52.242;9.098;2023-02-18T12:13:07;2.57;;;1.23;;
16892;SDS011;8563;52.242;9.098;2023-02-18T12:15:51;1.20;;;1.10;;
16892;SDS011;8563;52.242;9.098;2023-02-18T12:18:38;2.60;;;1.23;;
16892;SDS011;8563;52.242;9.098;2023-02-18T12:21:14;3.07;;;1.13;;
16892;SDS011;8563;52.242;9.098;2023-02-18T12:23:54;1.17;;;1.07;;
16892;SDS011;8563;52.242;9.098;2023-02-18T12:26:32;1.30;;;1.17;;
16892;SDS011;8563;52.242;9.098;2023-02-18T12:29:18;1.10;;;1.00;;
16892;SDS011;8563;52.242;9.098;2023-02-18T12:32:00;1.30;;;1.20;;
16892;SDS011;8563;52.242;9.098;2023-02-18T12:34:41;1.00;;;0.80;;
16892;SDS011;8563;52.242;9.098;2023-02-18T12:40:09;1.30;;;1.03;;
16892;SDS011;8563;52.242;9.098;2023-02-18T12:42:55;1.83;;;1.50;;
16892;SDS011;8563;52.242;9.098;2023-02-18T12:45:44;1.37;;;1.27;;
16892;SDS011;8563;52.242;9.098;2023-02-18T12:48:37;1.30;;;1.03;;
16892;SDS011;8563;52.242;9.098;2023-02-18T12:51:17;2.00;;;1.40;;
16892;SDS011;8563;52.242;9.098;2023-02-18T12:53:55;2.97;;;1.53;;
16892;SDS011;8563;52.242;9.098;2023-02-18T12:56:35;1.40;;;1.30;;
16892;SDS011;8563;52.242;9.098;2023-02-18T12:59:13;2.23;;;1.30;;
16892;SDS011;8563;52.242;9.098;2023-02-18T13:01:52;1.40;;;1.30;;
16892;SDS011;8563;52.242;9.098;2023-02-18T13:04:32;1.67;;;1.27;;
16892;SDS011;8563;52.242;9.098;2023-02-18T13:07:14;1.63;;;1.40;;
16892;SDS011;8563;52.242;9.098;2023-02-18T13:09:58;2.57;;;1.53;;
16892;SDS011;8563;52.242;9.098;2023-02-18T13:12:35;4.23;;;1.63;;
16892;SDS011;8563;52.242;9.098;2023-02-18T13:15:15;1.87;;;1.70;;
16892;SDS011;8563;52.242;9.098;2023-02-18T13:17:49;1.67;;;1.57;;
16892;SDS011;8563;52.242;9.098;2023-02-18T13:20:35;1.97;;;1.63;;
16892;SDS011;8563;52.242;9.098;2023-02-18T13:23:12;3.10;;;1.50;;
16892;SDS011;8563;52.242;9.098;2023-02-18T13:25:48;1.80;;;1.60;;
16892;SDS011;8563;52.242;9.098;2023-02-18T13:28:24;2.47;;;1.70;;
16892;SDS011;8563;52.242;9.098;2023-02-18T13:31:09;4.13;;;2.10;;
16892;SDS011;8563;52.242;9.098;2023-02-18T13:33:49;2.27;;;2.07;;
16892;SDS011;8563;52.242;9.098;2023-02-18T13:36:27;4.00;;;2.20;;
16892;SDS011;8563;52.242;9.098;2023-02-18T13:39:05;3.17;;;2.03;;
16892;SDS011;8563;52.242;9.098;2023-02-18T13:41:40;3.17;;;2.30;;
16892;SDS011;8563;52.242;9.098;2023-02-18T13:50:29;3.83;;;3.03;;
16892;SDS011;8563;52.242;9.098;2023-02-18T13:56:00;4.50;;;3.80;;
16892;SDS011;8563;52.242;9.098;2023-02-18T13:58:37;3.17;;;2.87;;
16892;SDS011;8563;52.242;9.098;2023-02-18T14:01:18;4.23;;;2.27;;
16892;SDS011;8563;52.242;9.098;2023-02-18T14:03:55;3.43;;;2.30;;
16892;SDS011;8563;52.242;9.098;2023-02-18T14:06:31;3.07;;;2.30;;
16892;SDS011;8563;52.242;9.098;2023-02-18T14:12:14;3.60;;;2.47;;
16892;SDS011;8563;52.242;9.098;2023-02-18T14:14:47;3.90;;;2.60;;
16892;SDS011;8563;52.242;9.098;2023-02-18T14:17:31;3.13;;;2.83;;
16892;SDS011;8563;52.242;9.098;2023-02-18T14:22:59;3.97;;;2.60;;
16892;SDS011;8563;52.242;9.098;2023-02-18T14:25:34;4.70;;;2.37;;
16892;SDS011;8563;52.242;9.098;2023-02-18T14:31:00;3.70;;;2.50;;
16892;SDS011;8563;52.242;9.098;2023-02-18T14:33:34;3.00;;;2.50;;
16892;SDS011;8563;52.242;9.098;2023-02-18T14:36:08;3.77;;;3.00;;
16892;SDS011;8563;52.242;9.098;2023-02-18T14:38:44;5.30;;;2.80;;
16892;SDS011;8563;52.242;9.098;2023-02-18T14:41:37;4.67;;;2.47;;
16892;SDS011;8563;52.242;9.098;2023-02-18T14:44:15;5.57;;;3.10;;
16892;SDS011;8563;52.242;9.098;2023-02-18T14:47:05;3.50;;;3.20;;
16892;SDS011;8563;52.242;9.098;2023-02-18T14:49:42;4.37;;;3.23;;
16892;SDS011;8563;52.242;9.098;2023-02-18T14:52:19;8.23;;;3.50;;
16892;SDS011;8563;52.242;9.098;2023-02-18T14:54:56;5.03;;;3.60;;
16892;SDS011;8563;52.242;9.098;2023-02-18T14:57:31;3.77;;;3.40;;
16892;SDS011;8563;52.242;9.098;2023-02-18T15:00:13;6.60;;;3.40;;
16892;SDS011;8563;52.242;9.098;2023-02-18T15:02:47;8.03;;;3.53;;
16892;SDS011;8563;52.242;9.098;2023-02-18T15:05:22;7.37;;;3.90;;
16892;SDS011;8563;52.242;9.098;2023-02-18T15:07:56;8.07;;;3.90;;
16892;SDS011;8563;52.242;9.098;2023-02-18T15:10:33;9.00;;;3.90;;
16892;SDS011;8563;52.242;9.098;2023-02-18T15:13:08;8.00;;;5.20;;
16892;SDS011;8563;52.242;9.098;2023-02-18T15:15:45;9.50;;;5.73;;
16892;SDS011;8563;52.242;9.098;2023-02-18T15:18:21;9.53;;;4.90;;
16892;SDS011;8563;52.242;9.098;2023-02-18T15:20:55;5.57;;;3.90;;
16892;SDS011;8563;52.242;9.098;2023-02-18T15:23:28;8.73;;;4.00;;
16892;SDS011;8563;52.242;9.098;2023-02-18T15:26:04;8.67;;;3.57;;
16892;SDS011;8563;52.242;9.098;2023-02-18T15:28:40;9.83;;;4.90;;
16892;SDS011;8563;52.242;9.098;2023-02-18T15:31:13;6.03;;;4.17;;
16892;SDS011;8563;52.242;9.098;2023-02-18T15:33:47;4.80;;;4.07;;
16892;SDS011;8563;52.242;9.098;2023-02-18T15:36:21;10.57;;;4.70;;
16892;SDS011;8563;52.242;9.098;2023-02-18T15:38:55;8.17;;;5.90;;
16892;SDS011;8563;52.242;9.098;2023-02-18T15:41:34;8.37;;;3.93;;
16892;SDS011;8563;52.242;9.098;2023-02-18T15:44:08;7.07;;;3.83;;
16892;SDS011;8563;52.242;9.098;2023-02-18T15:46:41;9.37;;;4.50;;
16892;SDS011;8563;52.242;9.098;2023-02-18T15:49:14;7.63;;;4.83;;
16892;SDS011;8563;52.242;9.098;2023-02-18T15:51:52;7.90;;;4.77;;
16892;SDS011;8563;52.242;9.098;2023-02-18T15:54:27;5.73;;;3.90;;
16892;SDS011;8563;52.242;9.098;2023-02-18T15:57:03;7.83;;;3.63;;
16892;SDS011;8563;52.242;9.098;2023-02-18T15:59:42;10.33;;;3.97;;
16892;SDS011;8563;52.242;9.098;2023-02-18T16:02:17;6.30;;;3.43;;
16892;SDS011;8563;52.242;9.098;2023-02-18T16:04:51;7.07;;;4.00;;
16892;SDS011;8563;52.242;9.098;2023-02-18T16:07:26;5.33;;;4.03;;
16892;SDS011;8563;52.242;9.098;2023-02-18T16:10:07;8.80;;;5.20;;
16892;SDS011;8563;52.242;9.098;2023-02-18T16:12:46;8.57;;;6.23;;